Time;durP1;ratioP1;P1;durP2;ratioP2;P2;SDS_P1;SDS_P2;PMS_P1;PMS_P2;Temp;Humidity;BMP_temperature;BMP_pressure;BME280_temperature;BME280_humidity;BME280_pressure;Samples;Min_cycle;Max_cycle;Signal;HPM_P1;HPM_P2
2023/05/01 00:00:11;;;;;;;5.68;3.95;;;19.40;84.60;;;;;;6126088;23;20037;-75
2023/05/01 00:02:37;;;;;;;5.57;4.03;;;19.40;84.40;;;;;;6125752;23;19998;-75
2023/05/01 00:05:03;;;;;;;5.95;3.20;;;19.40;84.40;;;;;;6126203;23;20013;-75
2023/05/01 00:07:30;;;;;;;4.32;3.63;;;19.40;84.00;;;;;;6126396;23;20002;-75
2023/05/01 00:09:59;;;;;;;4.68;3.08;;;19.30;83.90;;;;;;6126569;23;20006;-75
2023/05/01 00:12:25;;;;;;;3.55;2.80;;;19.30;83.80;;;;;;6125771;23;20065;-75
2023/05/01 00:14:52;;;;;;;3.28;2.53;;;19.30;83.80;;;;;;6126156;23;20005;-75
2023/05/01 00:17:18;;;;;;;2.65;2.17;;;19.30;83.50;;;;;;6126183;23;20436;-76
2023/05/01 00:19:43;;;;;;;3.45;2.28;;;19.30;83.20;;;;;;6127162;23;20025;-75
2023/05/01 00:22:09;;;;;;;2.92;2.00;;;19.30;82.80;;;;;;6125974;23;20006;-75
2023/05/01 00:24:35;;;;;;;2.10;1.90;;;19.20;82.00;;;;;;6126030;23;20324;-75
2023/05/01 00:27:00;;;;;;;4.25;2.95;;;19.20;81.80;;;;;;6126498;23;20009;-75
2023/05/01 00:29:26;;;;;;;2.75;2.10;;;19.20;79.70;;;;;;6126724;23;20013;-75
2023/05/01 00:31:54;;;;;;;2.92;2.20;;;19.10;80.30;;;;;;6126532;23;20006;-76
2023/05/01 00:34:20;;;;;;;4.43;2.00;;;19.10;79.70;;;;;;6099289;23;20412;-76
2023/05/01 00:36:45;;;;;;;2.42;2.22;;;19.10;80.10;;;;;;6125661;23;20005;-75
2023/05/01 00:39:11;;;;;;;3.28;2.40;;;19.10;79.20;;;;;;6126456;23;20006;-76
2023/05/01 00:41:37;;;;;;;2.75;2.22;;;19.10;78.10;;;;;;6100327;23;20336;-76
2023/05/01 00:44:02;;;;;;;4.05;2.25;;;19.10;77.70;;;;;;6126099;23;20401;-76
2023/05/01 00:46:29;;;;;;;3.25;2.83;;;19.00;77.40;;;;;;6126092;23;20002;-76
2023/05/01 00:48:58;;;;;;;8.07;2.78;;;19.00;78.50;;;;;;6125840;23;20433;-76
2023/05/01 00:51:26;;;;;;;4.68;3.13;;;19.00;77.90;;;;;;6126321;23;20009;-76
2023/05/01 00:53:51;;;;;;;2.40;2.17;;;19.00;76.60;;;;;;6126297;23;20002;-76
2023/05/01 00:56:17;;;;;;;3.92;2.58;;;18.90;76.40;;;;;;6125494;23;20033;-76
2023/05/01 00:58:48;;;;;;;3.75;2.85;;;18.90;76.90;;;;;;6126336;23;20005;-76
2023/05/01 01:01:15;;;;;;;4.25;2.78;;;18.90;76.70;;;;;;6125757;23;20006;-77
2023/05/01 01:03:40;;;;;;;4.20;2.67;;;18.90;76.80;;;;;;6125468;23;19998;-77
2023/05/01 01:06:36;;;;;;;4.60;2.80;;;18.90;76.60;;;;;;6125122;23;20009;-77
2023/05/01 01:09:27;;;;;;;4.55;2.75;;;19.00;76.00;;;;;;6126029;23;20012;-77
2023/05/01 01:12:08;;;;;;;5.13;2.85;;;19.00;75.60;;;;;;6126104;23;20013;-77
2023/05/01 01:14:44;;;;;;;;;;;18.90;74.90;;;;;;6125456;23;20006;-77
2023/05/01 01:17:44;;;;;;;3.72;2.65;;;18.90;75.10;;;;;;6126305;23;20070;-77
2023/05/01 01:20:34;;;;;;;3.00;2.67;;;18.90;75.30;;;;;;6125857;23;20295;-77
2023/05/01 01:23:38;;;;;;;4.95;2.85;;;18.90;75.40;;;;;;6125809;23;20002;-77
2023/05/01 01:26:19;;;;;;;5.40;2.78;;;18.90;75.00;;;;;;6124485;23;20001;-77
2023/05/01 01:28:51;;;;;;;4.13;2.92;;;18.80;75.10;;;;;;6125839;23;20361;-77
2023/05/01 01:31:21;;;;;;;3.95;3.40;;;18.80;75.20;;;;;;6125756;23;20157;-77
2023/05/01 01:33:54;;;;;;;3.58;2.67;;;18.80;74.70;;;;;;6125250;23;20076;-77
2023/05/01 01:36:40;;;;;;;3.47;2.67;;;18.80;75.10;;;;;;6125263;23;20092;-77
2023/05/01 01:39:27;;;;;;;3.28;2.80;;;18.80;75.10;;;;;;6126072;23;20056;-78
2023/05/01 01:41:56;;;;;;;2.40;2.20;;;18.80;74.80;;;;;;6125295;23;20063;-78
2023/05/01 01:44:36;;;;;;;5.07;2.55;;;18.80;74.10;;;;;;6125086;23;20006;-78
2023/05/01 01:47:06;;;;;;;4.75;2.63;;;18.70;73.20;;;;;;6125594;23;20008;-78
2023/05/01 01:49:33;;;;;;;2.55;2.33;;;18.70;72.90;;;;;;6124679;23;20013;-78
2023/05/01 01:52:02;;;;;;;4.97;2.75;;;18.70;73.20;;;;;;6125510;23;20002;-78
2023/05/01 01:54:36;;;;;;;3.75;2.65;;;18.70;73.40;;;;;;6125336;23;20005;-78
2023/05/01 01:57:03;;;;;;;4.97;2.45;;;18.70;72.70;;;;;;6125904;23;20428;-78
2023/05/01 01:59:34;;;;;;;7.20;3.50;;;18.70;71.90;;;;;;6125286;23;20025;-78
2023/05/01 02:02:01;;;;;;;3.35;2.03;;;18.60;69.90;;;;;;6125646;23;20464;-78
2023/05/01 02:04:28;;;;;;;3.25;2.45;;;18.50;71.30;;;;;;6126201;23;20005;-78
2023/05/01 02:07:00;;;;;;;4.53;2.55;;;18.50;71.50;;;;;;6099932;23;20045;-78
2023/05/01 02:09:28;;;;;;;3.67;2.35;;;18.50;71.00;;;;;;6125566;23;20095;-78
2023/05/01 02:11:54;;;;;;;3.83;2.50;;;18.50;71.10;;;;;;6125529;23;20320;-77
2023/05/01 02:14:21;;;;;;;4.57;2.22;;;18.50;70.90;;;;;;6125734;23;20349;-77
2023/05/01 02:16:49;;;;;;;3.50;2.28;;;18.50;70.90;;;;;;6127508;23;20017;-77
2023/05/01 02:19:16;;;;;;;5.18;2.50;;;18.50;70.60;;;;;;6127893;23;20003;-77
2023/05/01 02:21:44;;;;;;;2.88;2.00;;;18.50;70.30;;;;;;6127877;23;19998;-77
2023/05/01 02:24:11;;;;;;;4.40;2.13;;;18.50;70.20;;;;;;6127798;23;20301;-77
2023/05/01 02:26:46;;;;;;;3.58;1.65;;;18.50;69.90;;;;;;6127736;23;20032;-77
2023/05/01 02:29:12;;;;;;;4.63;2.60;;;18.40;69.70;;;;;;6127491;23;20029;-77
2023/05/01 02:31:38;;;;;;;4.60;2.40;;;18.40;69.50;;;;;;6127327;23;20341;-77
2023/05/01 02:34:04;;;;;;;5.43;3.10;;;18.30;69.40;;;;;;6127397;23;20002;-77
2023/05/01 02:36:30;;;;;;;2.97;2.30;;;18.20;68.00;;;;;;6127731;23;20092;-77
2023/05/01 02:38:56;;;;;;;3.75;2.30;;;18.30;69.00;;;;;;6101277;23;20396;-77
2023/05/01 02:41:26;;;;;;;3.90;2.28;;;18.20;68.60;;;;;;6127789;23;19998;-77
2023/05/01 02:44:03;;;;;;;3.15;2.25;;;18.20;68.70;;;;;;6127140;23;20002;-75
2023/05/01 02:46:32;;;;;;;2.28;1.83;;;18.20;68.20;;;;;;6126754;23;19998;-77
2023/05/01 02:49:01;;;;;;;3.72;2.10;;;18.20;68.80;;;;;;6127464;23;19998;-77
2023/05/01 02:51:28;;;;;;;2.75;2.22;;;18.20;68.20;;;;;;6101752;23;20053;-77
2023/05/01 02:53:54;;;;;;;4.30;1.80;;;18.20;68.30;;;;;;6127476;23;20009;-77
2023/05/01 02:56:20;;;;;;;2.17;1.92;;;18.10;68.30;;;;;;6126898;23;20002;-77
2023/05/01 02:58:48;;;;;;;6.75;2.25;;;18.10;68.60;;;;;;6127368;23;20008;-77
2023/05/01 03:01:14;;;;;;;2.55;2.20;;;18.10;68.10;;;;;;6127595;23;20442;-77
2023/05/01 03:03:39;;;;;;;2.85;2.15;;;18.10;67.80;;;;;;6127252;23;20025;-77
2023/05/01 03:06:05;;;;;;;2.95;2.15;;;18.10;68.10;;;;;;6126668;23;20006;-76
2023/05/01 03:08:31;;;;;;;3.80;2.33;;;18.10;68.00;;;;;;6127051;23;20002;-77
2023/05/01 03:10:56;;;;;;;6.53;2.90;;;18.10;68.00;;;;;;6126971;23;20013;-77
2023/05/01 03:13:22;;;;;;;3.75;2.33;;;18.10;68.00;;;;;;6127106;23;20032;-77
2023/05/01 03:15:47;;;;;;;2.83;1.98;;;18.10;68.40;;;;;;6127357;23;20085;-77
2023/05/01 03:18:13;;;;;;;4.95;2.50;;;18.10;68.10;;;;;;6127419;23;20006;-77
2023/05/01 03:20:39;;;;;;;4.40;2.80;;;18.10;67.50;;;;;;6127584;23;20432;-77
2023/05/01 03:23:05;;;;;;;3.08;2.00;;;18.10;67.90;;;;;;6126156;23;20441;-77
2023/05/01 03:25:31;;;;;;;3.00;2.33;;;18.10;67.80;;;;;;6126863;23;20077;-77
2023/05/01 03:27:57;;;;;;;2.50;2.22;;;18.10;67.90;;;;;;6127265;23;20499;-77
2023/05/01 03:30:22;;;;;;;2.38;2.15;;;18.10;67.80;;;;;;6127128;23;20061;-77
2023/05/01 03:32:48;;;;;;;5.72;2.30;;;18.10;67.80;;;;;;6126348;23;20056;-77
2023/05/01 03:35:14;;;;;;;3.13;2.50;;;18.00;67.80;;;;;;6127003;23;20001;-77
2023/05/01 03:37:39;;;;;;;3.08;2.55;;;18.10;67.70;;;;;;6127062;23;19998;-77
2023/05/01 03:40:06;;;;;;;3.28;2.25;;;18.00;67.60;;;;;;6100882;23;20002;-77
2023/05/01 03:42:31;;;;;;;2.83;2.53;;;18.00;67.90;;;;;;6126268;23;20396;-77
2023/05/01 03:44:57;;;;;;;4.35;2.75;;;18.00;67.90;;;;;;6126646;23;20145;-77
2023/05/01 03:47:22;;;;;;;4.15;2.55;;;17.90;67.20;;;;;;6126571;23;20006;-78
2023/05/01 03:49:48;;;;;;;3.08;2.42;;;17.90;67.30;;;;;;6126118;23;20030;-77
2023/05/01 03:52:14;;;;;;;2.72;2.42;;;17.90;67.20;;;;;;6126539;23;20008;-78
2023/05/01 03:54:39;;;;;;;3.40;2.58;;;17.90;67.20;;;;;;6125483;23;20013;-78
2023/05/01 03:57:06;;;;;;;2.75;2.20;;;17.90;66.80;;;;;;6125776;23;20065;-78
2023/05/01 03:59:31;;;;;;;3.13;1.70;;;17.80;66.70;;;;;;6126810;23;20006;-76
2023/05/01 04:01:57;;;;;;;2.58;2.00;;;17.80;66.70;;;;;;6100171;23;20013;-76
2023/05/01 04:04:22;;;;;;;5.15;2.20;;;17.80;66.80;;;;;;6125986;23;19998;-77
2023/05/01 04:06:48;;;;;;;3.33;2.17;;;17.80;66.60;;;;;;6126217;23;20005;-77
2023/05/01 04:09:15;;;;;;;2.55;1.92;;;17.80;66.50;;;;;;6126872;23;20005;-77
2023/05/01 04:11:40;;;;;;;3.90;2.63;;;17.70;66.30;;;;;;6126388;23;20006;-77
2023/05/01 04:14:06;;;;;;;2.53;2.20;;;17.80;66.40;;;;;;6125516;23;19994;-77
2023/05/01 04:16:32;;;;;;;5.03;2.40;;;17.70;66.10;;;;;;6125729;23;20021;-77
2023/05/01 04:18:57;;;;;;;2.40;2.20;;;17.70;66.20;;;;;;6126608;23;20080;-77
2023/05/01 04:21:23;;;;;;;2.70;2.17;;;17.70;66.20;;;;;;6126185;23;20005;-77
2023/05/01 04:23:49;;;;;;;3.47;2.13;;;17.70;66.20;;;;;;6125748;23;20002;-77
2023/05/01 04:26:15;;;;;;;2.58;1.70;;;17.70;66.00;;;;;;6125448;23;20005;-77
2023/05/01 04:28:41;;;;;;;4.80;2.40;;;17.70;65.60;;;;;;6126536;23;20006;-78
2023/05/01 04:31:07;;;;;;;2.88;2.28;;;17.60;65.60;;;;;;6100477;23;20032;-77
2023/05/01 04:33:32;;;;;;;4.90;2.40;;;17.60;65.60;;;;;;6125721;23;20053;-77
2023/05/01 04:35:58;;;;;;;2.78;2.05;;;17.60;65.60;;;;;;6125637;23;20009;-77
2023/05/01 04:38:24;;;;;;;2.47;2.03;;;17.60;65.90;;;;;;6126210;23;20004;-77
2023/05/01 04:40:49;;;;;;;3.60;1.88;;;17.60;65.80;;;;;;6126665;23;20325;-77
2023/05/01 04:43:15;;;;;;;2.80;1.73;;;17.60;65.60;;;;;;6126037;23;20085;-78
2023/05/01 04:45:41;;;;;;;2.75;2.15;;;17.60;65.90;;;;;;6126889;23;20006;-77
2023/05/01 04:48:07;;;;;;;2.00;1.80;;;17.60;65.80;;;;;;6126521;23;20439;-77
2023/05/01 04:50:32;;;;;;;2.10;1.90;;;17.60;65.60;;;;;;6126209;23;20002;-77
2023/05/01 04:52:58;;;;;;;4.13;1.60;;;17.60;65.60;;;;;;6125733;23;20043;-77
2023/05/01 04:55:24;;;;;;;3.67;1.98;;;17.60;65.60;;;;;;6126474;23;20354;-77
2023/05/01 04:57:50;;;;;;;2.20;1.70;;;17.60;65.30;;;;;;6126133;23;20328;-77
2023/05/01 05:00:17;;;;;;;3.13;1.70;;;17.60;65.60;;;;;;6099655;23;20016;-76
2023/05/01 05:02:45;;;;;;;3.40;1.88;;;17.60;65.00;;;;;;6124229;23;20425;-77
2023/05/01 05:05:10;;;;;;;2.88;1.90;;;17.60;65.40;;;;;;6125870;23;20029;-77
2023/05/01 05:07:36;;;;;;;3.42;1.50;;;17.60;65.30;;;;;;6126138;23;20005;-77
2023/05/01 05:10:02;;;;;;;2.80;2.08;;;17.60;65.10;;;;;;6125834;23;20455;-78
2023/05/01 05:12:27;;;;;;;2.75;1.83;;;17.60;65.30;;;;;;6125006;23;20006;-77
2023/05/01 05:14:53;;;;;;;4.32;2.42;;;17.60;65.60;;;;;;6126154;23;20416;-77
2023/05/01 05:17:18;;;;;;;2.10;1.90;;;17.60;65.60;;;;;;6125350;23;20096;-77
2023/05/01 05:19:44;;;;;;;3.15;1.80;;;17.60;65.00;;;;;;6126464;23;20006;-77
2023/05/01 05:22:11;;;;;;;2.17;1.92;;;17.70;65.20;;;;;;6125509;23;20401;-77
2023/05/01 05:24:37;;;;;;;2.67;1.95;;;17.70;65.40;;;;;;6100207;23;20069;-77
2023/05/01 05:27:05;;;;;;;4.20;2.40;;;17.80;64.90;;;;;;6125621;23;20060;-77
2023/05/01 05:29:31;;;;;;;2.63;2.10;;;17.80;64.90;;;;;;6126634;23;20059;-77
2023/05/01 05:31:58;;;;;;;3.53;1.95;;;17.80;64.70;;;;;;6124804;23;20006;-77
2023/05/01 05:34:24;;;;;;;4.97;2.30;;;17.80;64.70;;;;;;6125380;23;20054;-77
2023/05/01 05:36:50;;;;;;;2.80;2.25;;;17.80;64.70;;;;;;6125655;23;20001;-77
2023/05/01 05:39:15;;;;;;;2.75;1.95;;;17.90;64.50;;;;;;6126471;23;20409;-77
2023/05/01 05:41:41;;;;;;;2.42;1.85;;;17.90;64.40;;;;;;6125395;23;20383;-77
2023/05/01 05:44:07;;;;;;;2.60;2.05;;;17.80;64.10;;;;;;6125898;23;19998;-78
2023/05/01 05:46:32;;;;;;;3.80;2.33;;;17.90;64.40;;;;;;6125404;23;20073;-78
2023/05/01 05:48:58;;;;;;;2.42;2.17;;;17.90;64.40;;;;;;6125033;23;20006;-77
2023/05/01 05:51:24;;;;;;;3.97;2.20;;;17.90;63.80;;;;;;6124452;23;20022;-77
2023/05/01 05:53:49;;;;;;;3.10;2.22;;;17.90;64.50;;;;;;6125051;23;20013;-77
2023/05/01 05:56:15;;;;;;;2.40;2.20;;;17.90;64.70;;;;;;6125571;23;20033;-77
2023/05/01 05:58:41;;;;;;;2.75;1.90;;;17.90;64.80;;;;;;6125248;23;19998;-77
2023/05/01 06:01:08;;;;;;;2.88;2.00;;;18.00;64.50;;;;;;6123823;23;20006;-77
2023/05/01 06:03:35;;;;;;;3.30;2.20;;;18.00;64.80;;;;;;6124849;23;19998;-77
2023/05/01 06:06:01;;;;;;;2.78;1.98;;;18.00;64.70;;;;;;6125262;23;20330;-77
2023/05/01 06:08:29;;;;;;;2.97;2.15;;;18.10;64.90;;;;;;6124568;23;20002;-77
2023/05/01 06:10:55;;;;;;;2.88;1.90;;;18.10;65.00;;;;;;6125210;23;20028;-77
2023/05/01 06:13:21;;;;;;;7.70;2.72;;;18.20;64.60;;;;;;6125226;23;20488;-77
2023/05/01 06:15:46;;;;;;;3.15;2.17;;;18.20;64.30;;;;;;6125765;23;20306;-77
2023/05/01 06:18:12;;;;;;;4.57;2.40;;;18.20;64.30;;;;;;6125507;23;20018;-78
2023/05/01 06:20:38;;;;;;;2.15;1.80;;;18.30;63.70;;;;;;6124969;23;19998;-76
2023/05/01 06:23:03;;;;;;;3.03;1.88;;;18.30;64.10;;;;;;6124025;23;20278;-78
2023/05/01 06:25:29;;;;;;;3.05;1.92;;;18.30;63.90;;;;;;6125795;23;20009;-80
2023/05/01 06:27:55;;;;;;;5.00;2.10;;;18.40;64.40;;;;;;6124470;23;20464;-77
2023/05/01 06:30:21;;;;;;;2.65;2.10;;;18.50;63.90;;;;;;6125068;23;20090;-77
2023/05/01 06:32:47;;;;;;;4.85;2.53;;;18.50;64.10;;;;;;6124873;23;20060;-77
2023/05/01 06:35:13;;;;;;;4.80;2.47;;;18.50;63.20;;;;;;6124444;23;20076;-77
2023/05/01 06:37:39;;;;;;;2.47;1.80;;;18.60;63.90;;;;;;6124860;23;20006;-77
2023/05/01 06:40:08;;;;;;;2.60;1.73;;;18.60;63.60;;;;;;6124617;23;20341;-77
2023/05/01 06:42:35;;;;;;;2.50;2.13;;;18.60;63.60;;;;;;6124868;23;20025;-78
2023/05/01 06:45:02;;;;;;;6.38;3.10;;;18.60;62.90;;;;;;6124745;23;20006;-77
2023/05/01 06:47:28;;;;;;;2.58;2.00;;;18.60;62.80;;;;;;6124063;23;20037;-77
2023/05/01 06:49:53;;;;;;;2.97;1.60;;;18.70;63.20;;;;;;6124540;23;20006;-79
2023/05/01 06:52:19;;;;;;;3.13;2.75;;;18.70;63.20;;;;;;6125151;23;20034;-74
2023/05/01 06:54:45;;;;;;;3.40;2.03;;;18.70;61.70;;;;;;6097878;23;20440;-75
2023/05/01 06:57:11;;;;;;;2.15;1.63;;;18.70;62.80;;;;;;6123973;23;20002;-75
2023/05/01 06:59:36;;;;;;;3.65;1.88;;;18.70;63.10;;;;;;6122369;23;20002;-75
2023/05/01 07:02:02;;;;;;;2.85;1.67;;;18.80;62.70;;;;;;6124906;23;19998;-74
2023/05/01 07:04:27;;;;;;;2.30;1.88;;;18.80;62.80;;;;;;6126183;23;19998;-77
2023/05/01 07:06:53;;;;;;;2.13;1.45;;;18.90;62.10;;;;;;6125278;23;20052;-74
2023/05/01 07:09:19;;;;;;;2.65;1.88;;;18.90;62.00;;;;;;6124008;23;20002;-81
2023/05/01 07:11:45;;;;;;;1.42;1.33;;;18.90;62.20;;;;;;6098300;23;20452;-75
2023/05/01 07:14:11;;;;;;;4.07;2.00;;;19.00;62.50;;;;;;6125478;23;19998;-77
2023/05/01 07:16:37;;;;;;;2.38;1.58;;;19.00;61.50;;;;;;6126771;23;20013;-77
2023/05/01 07:19:02;;;;;;;2.05;1.75;;;18.90;61.40;;;;;;6126487;23;20006;-78
2023/05/01 07:21:28;;;;;;;1.75;1.30;;;18.90;61.40;;;;;;6101182;23;20002;-82
2023/05/01 07:23:54;;;;;;;1.90;1.55;;;19.00;61.80;;;;;;6126103;23;20004;-78
2023/05/01 07:26:20;;;;;;;1.70;1.40;;;19.10;61.10;;;;;;6127567;23;20016;-78
2023/05/01 07:28:45;;;;;;;1.63;1.45;;;19.10;61.80;;;;;;6125828;23;20084;-78
2023/05/01 07:31:11;;;;;;;2.47;1.50;;;19.20;61.70;;;;;;6124408;23;20107;-85
2023/05/01 07:33:37;;;;;;;2.92;1.98;;;19.20;61.50;;;;;;6124064;23;20006;-78
2023/05/01 07:36:03;;;;;;;3.88;1.80;;;19.30;60.90;;;;;;6125166;23;20021;-75
2023/05/01 07:38:29;;;;;;;2.78;1.88;;;19.30;61.30;;;;;;6125962;23;20002;-75
2023/05/01 07:40:55;;;;;;;2.83;1.70;;;19.40;61.20;;;;;;6126346;23;20002;-75
2023/05/01 07:43:21;;;;;;;3.45;1.50;;;19.40;60.50;;;;;;6124752;23;20424;-78
2023/05/01 07:45:59;;;;;;;3.00;1.50;;;19.50;60.80;;;;;;6126609;23;20061;-76
2023/05/01 07:48:25;;;;;;;1.95;1.45;;;19.50;61.00;;;;;;6127263;23;20061;-76
2023/05/01 07:50:52;;;;;;;3.00;1.45;;;19.50;60.70;;;;;;6127018;23;20009;-75
2023/05/01 07:53:17;;;;;;;3.58;1.90;;;19.60;61.00;;;;;;6127335;23;20013;-75
2023/05/01 07:55:43;;;;;;;2.83;1.63;;;19.60;60.70;;;;;;6122710;23;20013;-76
2023/05/01 07:58:09;;;;;;;1.35;1.23;;;19.70;60.20;;;;;;6126200;23;20317;-75
2023/05/01 08:00:35;;;;;;;2.50;1.73;;;19.70;60.70;;;;;;6127016;23;20002;-75
2023/05/01 08:03:01;;;;;;;2.33;1.52;;;19.70;60.40;;;;;;6126941;23;20004;-75
2023/05/01 08:05:27;;;;;;;3.63;2.03;;;19.80;60.00;;;;;;6101540;23;20451;-75
2023/05/01 08:07:52;;;;;;;3.65;1.90;;;19.80;60.20;;;;;;6100557;23;20006;-75
2023/05/01 08:10:18;;;;;;;2.08;1.40;;;19.80;59.70;;;;;;6127299;23;20006;-75
2023/05/01 08:12:44;;;;;;;3.55;1.60;;;19.90;60.00;;;;;;6125871;23;20006;-75
2023/05/01 08:15:09;;;;;;;3.42;1.80;;;19.90;60.40;;;;;;6127053;23;20517;-75
2023/05/01 08:17:35;;;;;;;3.45;2.22;;;20.00;60.10;;;;;;6126555;23;20018;-75
2023/05/01 08:20:02;;;;;;;4.55;1.80;;;20.00;59.10;;;;;;6127184;23;20002;-75
2023/05/01 08:22:27;;;;;;;4.13;1.63;;;20.00;59.30;;;;;;6126594;23;20302;-75
2023/05/01 08:24:53;;;;;;;3.83;1.60;;;20.00;59.40;;;;;;6126809;23;20069;-75
2023/05/01 08:27:19;;;;;;;2.22;1.70;;;20.10;59.60;;;;;;6126918;23;20389;-75
2023/05/01 08:29:44;;;;;;;2.40;1.42;;;20.20;59.50;;;;;;6126637;23;20006;-75
2023/05/01 08:32:10;;;;;;;2.05;1.70;;;20.30;59.80;;;;;;6126779;23;20401;-75
2023/05/01 08:34:36;;;;;;;1.83;1.42;;;20.30;59.20;;;;;;6127088;23;20010;-75
2023/05/01 08:37:02;;;;;;;3.05;2.08;;;20.40;59.10;;;;;;6126828;23;20417;-75
2023/05/01 08:39:27;;;;;;;2.03;1.52;;;20.50;57.70;;;;;;6126679;23;20069;-75
2023/05/01 08:41:54;;;;;;;6.57;2.05;;;20.50;58.10;;;;;;6100258;23;20002;-75
2023/05/01 08:44:19;;;;;;;1.98;1.45;;;20.60;59.30;;;;;;6126794;23;20002;-76
2023/05/01 08:47:02;;;;;;;1.27;1.17;;;20.80;58.90;;;;;;6126580;23;20328;-75
2023/05/01 08:49:32;;;;;;;2.67;1.50;;;21.00;58.20;;;;;;6100649;23;20084;-75
2023/05/01 08:52:00;;;;;;;;;;;21.00;57.60;;;;;;6126736;23;20005;-75
2023/05/01 08:54:28;;;;;;;5.50;1.30;;;21.10;56.80;;;;;;6126643;23;20087;-75
2023/05/01 08:57:01;;;;;;;5.90;2.00;;;21.10;57.50;;;;;;6126545;23;20002;-75
2023/05/01 08:59:28;;;;;;;3.30;1.83;;;21.20;56.70;;;;;;6126095;23;19998;-75
2023/05/01 09:01:55;;;;;;;2.65;1.27;;;21.20;56.60;;;;;;6125778;23;20002;-75
2023/05/01 09:04:21;;;;;;;1.80;1.50;;;21.20;57.10;;;;;;6124952;23;20073;-75
2023/05/01 09:06:48;;;;;;;3.60;1.70;;;21.20;57.40;;;;;;6096085;23;20432;-75
2023/05/01 09:09:13;;;;;;;2.15;1.50;;;21.40;57.00;;;;;;6124801;23;20076;-76
2023/05/01 09:11:39;;;;;;;2.53;1.35;;;21.40;56.60;;;;;;6125621;23;20464;-76
2023/05/01 09:14:07;;;;;;;1.75;1.65;;;21.40;57.20;;;;;;6125030;23;20009;-77
2023/05/01 09:16:33;;;;;;;2.42;1.38;;;21.40;56.90;;;;;;6122954;23;20014;-76
2023/05/01 09:18:59;;;;;;;2.08;1.50;;;21.50;57.10;;;;;;6123741;23;20006;-76
2023/05/01 09:21:28;;;;;;;3.05;1.67;;;21.50;56.50;;;;;;6124883;23;20097;-78
2023/05/01 09:23:53;;;;;;;1.48;1.35;;;21.50;56.30;;;;;;6122056;23;20010;-79
2023/05/01 09:26:20;;;;;;;3.33;1.90;;;21.50;56.20;;;;;;6126268;23;20009;-79
2023/05/01 09:28:47;;;;;;;3.30;1.77;;;21.60;56.80;;;;;;6125262;23;20145;-79
2023/05/01 09:31:31;;;;;;;2.70;2.00;;;21.60;54.80;;;;;;6125506;23;20002;-79
2023/05/01 09:33:59;;;;;;;2.97;1.45;;;21.60;55.80;;;;;;6097675;23;20634;-79
2023/05/01 09:36:27;;;;;;;1.58;1.05;;;21.70;55.90;;;;;;6124599;23;20006;-80
2023/05/01 09:38:53;;;;;;;2.88;1.10;;;21.60;56.20;;;;;;6098213;23;20035;-79
2023/05/01 09:41:20;;;;;;;4.28;1.50;;;21.70;56.30;;;;;;6124696;23;20002;-80
2023/05/01 09:43:56;;;;;;;2.22;1.40;;;21.70;54.80;;;;;;6124398;23;20006;-80
2023/05/01 09:46:23;;;;;;;3.00;1.50;;;21.80;55.50;;;;;;6125313;23;20002;-80
2023/05/01 09:48:57;;;;;;;4.68;2.17;;;21.90;55.90;;;;;;6124650;23;20006;-79
2023/05/01 09:51:31;;;;;;;2.47;1.40;;;21.90;54.50;;;;;;6099706;23;20448;-79
2023/05/01 09:53:58;;;;;;;2.88;1.60;;;21.90;54.80;;;;;;6125341;23;20009;-80
2023/05/01 09:56:32;;;;;;;1.00;0.90;;;22.00;54.20;;;;;;6125599;23;20009;-80
2023/05/01 09:59:15;;;;;;;3.33;1.30;;;22.00;53.50;;;;;;6125695;23;20448;-80
2023/05/01 10:01:50;;;;;;;1.67;1.10;;;22.10;54.40;;;;;;6103665;23;20010;-80
2023/05/01 10:04:39;;;;;;;1.25;1.00;;;22.20;52.70;;;;;;6130157;23;20077;-80
2023/05/01 10:07:16;;;;;;;2.23;1.10;;;22.20;52.30;;;;;;6101445;23;20086;-81
2023/05/01 10:10:25;;;;;;;2.35;1.20;;;22.20;53.50;;;;;;6103497;23;20692;-79
2023/05/01 10:16:29;;;;;;;1.45;0.98;;;22.40;52.90;;;;;;6126900;23;20356;-76
2023/05/01 10:18:59;;;;;;;5.78;1.10;;;22.50;52.40;;;;;;6125744;23;20005;-76
2023/05/01 10:21:26;;;;;;;2.33;1.25;;;22.50;52.90;;;;;;6124918;23;20006;-76
2023/05/01 10:23:53;;;;;;;1.58;1.15;;;22.50;53.40;;;;;;6125532;23;20006;-76
2023/05/01 10:26:19;;;;;;;2.00;1.48;;;22.60;51.90;;;;;;6099236;23;20013;-77
2023/05/01 10:28:47;;;;;;;1.65;1.00;;;22.50;51.50;;;;;;6126377;23;20010;-77
2023/05/01 10:31:15;;;;;;;2.42;1.23;;;22.50;52.50;;;;;;6125423;23;20057;-76
2023/05/01 10:33:42;;;;;;;2.38;1.30;;;22.60;52.30;;;;;;6125602;23;19998;-77
2023/05/01 10:36:14;;;;;;;2.28;1.10;;;22.70;51.30;;;;;;6125799;23;20033;-77
2023/05/01 10:38:44;;;;;;;1.45;1.25;;;22.70;50.90;;;;;;6127568;23;20002;-78
2023/05/01 10:41:10;;;;;;;3.15;1.30;;;22.70;50.70;;;;;;6126928;23;20452;-77
2023/05/01 10:43:36;;;;;;;2.08;1.10;;;22.80;51.30;;;;;;6102060;23;20005;-77
2023/05/01 10:46:19;;;;;;;1.55;1.10;;;22.80;51.50;;;;;;6126549;23;20006;-77
2023/05/01 10:48:45;;;;;;;1.35;1.20;;;22.90;51.90;;;;;;6127666;23;20325;-77
2023/05/01 10:51:19;;;;;;;2.88;1.13;;;22.80;50.00;;;;;;6127040;23;20001;-78
2023/05/01 10:53:47;;;;;;;2.00;1.33;;;22.80;50.40;;;;;;6127642;23;20006;-78
2023/05/01 10:56:27;;;;;;;5.45;1.10;;;22.80;50.30;;;;;;6126254;23;20002;-77
2023/05/01 10:58:56;;;;;;;1.50;1.27;;;22.70;51.00;;;;;;6127151;23;19998;-76
2023/05/01 11:01:37;;;;;;;2.38;0.88;;;22.70;50.90;;;;;;6126417;23;20026;-76
2023/05/01 11:04:04;;;;;;;;;;;22.70;50.70;;;;;;6127525;23;20033;-78
2023/05/01 11:06:30;;;;;;;2.17;1.27;;;22.70;51.00;;;;;;6101145;23;19907;-76
2023/05/01 11:08:56;;;;;;;2.70;1.33;;;22.80;51.40;;;;;;6127317;23;20013;-79
2023/05/01 11:11:22;;;;;;;1.23;1.13;;;22.90;50.30;;;;;;6126249;23;20002;-78
2023/05/01 11:14:10;;;;;;;1.75;1.20;;;23.00;50.90;;;;;;6127659;23;20005;-78
2023/05/01 11:16:39;;;;;;;2.00;1.17;;;23.10;50.60;;;;;;6127107;23;20353;-78
2023/05/01 11:19:08;;;;;;;1.30;1.05;;;23.10;50.50;;;;;;6101477;23;20009;-80
2023/05/01 11:21:35;;;;;;;2.83;1.07;;;23.20;50.10;;;;;;6127011;23;20009;-79
2023/05/01 11:24:08;;;;;;;4.13;1.65;;;23.20;50.40;;;;;;6127533;23;20010;-80
2023/05/01 11:26:41;;;;;;;2.08;1.02;;;23.20;51.10;;;;;;6127159;23;20001;-80
2023/05/01 11:29:10;;;;;;;5.75;1.50;;;23.20;50.30;;;;;;6127453;23;20033;-80
2023/05/01 11:31:37;;;;;;;1.48;0.90;;;23.20;50.20;;;;;;6125493;23;20006;-80
2023/05/01 11:34:05;;;;;;;3.20;0.85;;;23.10;49.70;;;;;;6123059;23;20073;-80
2023/05/01 11:36:49;;;;;;;2.33;1.08;;;23.10;50.50;;;;;;6124393;23;20324;-80
2023/05/01 11:39:18;;;;;;;2.67;1.02;;;23.00;50.70;;;;;;6124684;23;20710;-80
2023/05/01 11:41:45;;;;;;;1.98;0.88;;;23.00;50.30;;;;;;6126490;23;20005;-80
2023/05/01 11:44:12;;;;;;;2.55;1.00;;;22.90;50.40;;;;;;6126562;23;20006;-80
2023/05/01 11:46:38;;;;;;;1.67;1.10;;;22.90;51.50;;;;;;6126072;23;20002;-80
2023/05/01 11:49:04;;;;;;;2.00;1.00;;;22.80;51.30;;;;;;6126586;23;20340;-80
2023/05/01 11:51:31;;;;;;;1.08;0.93;;;22.80;51.20;;;;;;6126307;23;20005;-81
2023/05/01 11:54:08;;;;;;;1.35;1.13;;;22.70;51.20;;;;;;6126404;23;20057;-80
2023/05/01 11:56:35;;;;;;;1.10;1.00;;;22.60;51.10;;;;;;6125701;23;20065;-80
2023/05/01 11:59:12;;;;;;;1.45;1.20;;;22.60;52.00;;;;;;6126087;23;20005;-80
2023/05/01 12:01:40;;;;;;;1.35;1.10;;;22.50;51.40;;;;;;6124001;23;20077;-80
2023/05/01 12:04:10;;;;;;;1.45;1.13;;;22.40;50.80;;;;;;6126217;23;20345;-80
2023/05/01 12:06:45;;;;;;;1.58;1.35;;;22.30;51.30;;;;;;6099516;23;20353;-80
2023/05/01 12:09:16;;;;;;;1.58;0.98;;;22.30;51.30;;;;;;6124676;23;20140;-78
2023/05/01 12:11:42;;;;;;;2.15;1.15;;;22.30;52.10;;;;;;6125067;23;20325;-78
2023/05/01 12:14:09;;;;;;;1.88;1.13;;;22.20;53.10;;;;;;6122054;23;20017;-78
2023/05/01 12:16:36;;;;;;;1.98;1.10;;;22.10;53.50;;;;;;6096637;23;20632;-78
2023/05/01 12:19:03;;;;;;;1.00;0.90;;;22.10;53.80;;;;;;6122165;23;20080;-78
2023/05/01 12:21:30;;;;;;;1.45;1.08;;;22.10;53.00;;;;;;6122097;23;20009;-78
2023/05/01 12:24:06;;;;;;;0.90;0.90;;;22.00;53.20;;;;;;6123163;23;20081;-78
2023/05/01 12:26:31;;;;;;;1.65;1.05;;;22.00;54.90;;;;;;6097004;23;20014;-78
2023/05/01 12:29:05;;;;;;;2.38;1.00;;;22.00;56.50;;;;;;6120840;23;20049;-78
2023/05/01 12:31:32;;;;;;;1.58;0.70;;;21.90;56.40;;;;;;6122338;23;20365;-78
2023/05/01 12:34:04;;;;;;;1.77;0.98;;;21.90;57.60;;;;;;6122698;23;20052;-78
2023/05/01 12:36:34;;;;;;;1.42;1.20;;;21.90;57.60;;;;;;6121492;23;20109;-78
2023/05/01 12:39:04;;;;;;;1.88;1.20;;;22.00;57.80;;;;;;6120341;23;20006;-78
2023/05/01 12:41:38;;;;;;;1.10;0.88;;;22.00;58.10;;;;;;6122851;23;20029;-78
2023/05/01 12:44:19;;;;;;;0.57;0.57;;;22.10;57.30;;;;;;6096445;23;20060;-78
2023/05/01 12:46:51;;;;;;;1.45;1.05;;;22.00;55.60;;;;;;6122769;23;20068;-78
2023/05/01 12:49:18;;;;;;;3.17;0.82;;;22.00;56.70;;;;;;6098384;23;20443;-78
2023/05/01 12:51:52;;;;;;;1.40;0.93;;;22.00;56.80;;;;;;6125091;23;20012;-78
2023/05/01 12:54:19;;;;;;;1.20;0.90;;;22.00;56.80;;;;;;6124549;23;20006;-78
2023/05/01 12:56:45;;;;;;;1.83;0.88;;;21.90;56.50;;;;;;6124964;23;20141;-78